Time;durP1;ratioP1;P1;durP2;ratioP2;P2;SDS_P1;SDS_P2;PMS_P1;PMS_P2;Temp;Humidity;BMP_temperature;BMP_pressure;BME280_temperature;BME280_humidity;BME280_pressure;Samples;Min_cycle;Max_cycle;Signal;HPM_P1;HPM_P2
2023/04/28 00:02:19;;;;;;;7.97;2.83;;;7.10;99.90;;;;;;5049129;28;20055;-90
2023/04/28 00:04:44;;;;;;;7.80;3.33;;;7.10;99.90;;;;;;5054997;28;20044;-90
2023/04/28 00:07:12;;;;;;;7.40;4.32;;;7.10;99.90;;;;;;5051285;28;20516;-87
2023/04/28 00:09:37;;;;;;;12.32;3.88;;;7.10;99.90;;;;;;5050971;28;20032;-90
2023/04/28 00:12:03;;;;;;;8.43;3.95;;;7.00;99.90;;;;;;5056614;28;20036;-89
2023/04/28 00:14:29;;;;;;;4.57;3.20;;;7.10;99.90;;;;;;5047123;28;20025;-89
2023/04/28 00:16:57;;;;;;;8.60;3.95;;;7.00;99.90;;;;;;5056449;28;20382;-88
2023/04/28 00:19:22;;;;;;;6.78;3.28;;;7.10;99.90;;;;;;5055191;28;20466;-89
2023/04/28 00:21:48;;;;;;;5.93;3.13;;;7.10;99.90;;;;;;5057401;28;20048;-88
2023/04/28 00:24:13;;;;;;;5.40;3.40;;;7.10;99.90;;;;;;5054312;28;20360;-86
2023/04/28 00:26:39;;;;;;;4.82;2.70;;;7.10;99.90;;;;;;5049548;28;20033;-89
2023/04/28 00:29:04;;;;;;;8.27;3.40;;;7.10;99.90;;;;;;5050004;28;20029;-90
2023/04/28 00:31:30;;;;;;;11.73;3.20;;;7.10;99.90;;;;;;5048291;28;20036;-89
2023/04/28 00:33:55;;;;;;;9.57;4.20;;;7.20;99.90;;;;;;5045767;28;20312;-89
2023/04/28 00:36:21;;;;;;;6.05;3.15;;;7.10;99.90;;;;;;5046733;28;20099;-90
2023/04/28 00:38:47;;;;;;;7.20;3.20;;;7.10;99.90;;;;;;5055203;28;20021;-89
2023/04/28 00:41:14;;;;;;;7.85;3.53;;;7.10;99.90;;;;;;5053574;28;20028;-88
2023/04/28 00:43:46;;;;;;;5.22;2.85;;;7.10;99.90;;;;;;5052090;28;20039;-89
2023/04/28 00:46:22;;;;;;;8.40;3.97;;;7.10;99.90;;;;;;5047654;28;20095;-88
2023/04/28 00:48:48;;;;;;;5.85;3.28;;;7.10;99.90;;;;;;5051559;28;20025;-89
2023/04/28 00:51:15;;;;;;;10.35;3.50;;;7.10;99.90;;;;;;5046574;28;20040;-90
2023/04/28 00:53:41;;;;;;;7.15;4.07;;;7.00;99.90;;;;;;5055689;28;20028;-86
2023/04/28 00:56:07;;;;;;;7.35;3.92;;;7.00;99.90;;;;;;5052453;28;20020;-88
2023/04/28 00:58:34;;;;;;;4.32;3.38;;;7.10;99.90;;;;;;5046155;28;20040;-89
2023/04/28 01:01:06;;;;;;;5.82;3.13;;;7.00;99.90;;;;;;5057020;28;20104;-88
2023/04/28 01:03:38;;;;;;;8.23;3.15;;;7.10;99.90;;;;;;5056229;28;20055;-89
2023/04/28 01:06:05;;;;;;;5.63;3.30;;;7.10;99.90;;;;;;5063845;28;20028;-89
2023/04/28 01:08:36;;;;;;;4.93;3.10;;;7.10;99.90;;;;;;5044575;28;20025;-86
2023/04/28 01:11:02;;;;;;;5.40;3.33;;;7.10;99.90;;;;;;5055088;28;20360;-89
2023/04/28 01:13:28;;;;;;;6.25;3.38;;;7.10;99.90;;;;;;5054687;28;21029;-88
2023/04/28 01:15:55;;;;;;;7.63;3.45;;;7.10;99.90;;;;;;5051570;28;20027;-89
2023/04/28 01:18:23;;;;;;;16.58;4.85;;;7.10;99.90;;;;;;5062827;28;20462;-88
2023/04/28 01:20:49;;;;;;;9.02;4.03;;;7.10;99.90;;;;;;5053509;28;20021;-86
2023/04/28 01:23:16;;;;;;;9.35;3.53;;;7.10;99.90;;;;;;5055800;28;20035;-89
2023/04/28 01:25:42;;;;;;;6.78;3.28;;;7.00;99.90;;;;;;5052533;28;20047;-89
2023/04/28 01:28:09;;;;;;;6.63;3.35;;;7.10;99.90;;;;;;5059174;28;20021;-90
2023/04/28 01:30:35;;;;;;;6.95;3.47;;;7.00;99.90;;;;;;5053456;28;20025;-88
2023/04/28 01:33:02;;;;;;;7.93;3.40;;;7.00;99.90;;;;;;5058001;28;20032;-89
2023/04/28 01:35:28;;;;;;;9.90;3.05;;;7.00;99.90;;;;;;5052698;28;20021;-91
2023/04/28 01:37:53;;;;;;;6.40;3.40;;;7.00;99.90;;;;;;5051302;28;20059;-89
2023/04/28 01:40:19;;;;;;;5.60;3.35;;;7.00;99.90;;;;;;5056403;28;20025;-89
2023/04/28 01:42:44;;;;;;;7.32;3.00;;;7.00;99.90;;;;;;5056926;28;20020;-90
2023/04/28 01:45:10;;;;;;;5.82;3.35;;;6.90;99.90;;;;;;5063679;28;20048;-90
2023/04/28 01:47:36;;;;;;;6.28;2.83;;;6.90;99.90;;;;;;5048413;28;20036;-90
2023/04/28 01:50:02;;;;;;;14.38;3.90;;;6.90;99.90;;;;;;5055771;28;20039;-89
2023/04/28 01:52:27;;;;;;;5.43;3.72;;;6.90;99.90;;;;;;5058863;28;20039;-89
2023/04/28 01:54:53;;;;;;;11.00;4.07;;;6.90;99.90;;;;;;5050825;28;20033;-86
2023/04/28 01:57:19;;;;;;;12.27;3.80;;;6.90;99.90;;;;;;5054606;28;20029;-90
2023/04/28 01:59:45;;;;;;;7.00;3.55;;;6.80;99.90;;;;;;5046620;28;20088;-89
2023/04/28 02:02:11;;;;;;;5.47;3.65;;;6.90;99.90;;;;;;5043221;28;20128;-89
2023/04/28 02:04:40;;;;;;;10.10;3.85;;;6.90;99.90;;;;;;5060752;28;20045;-88
2023/04/28 02:07:07;;;;;;;11.57;3.75;;;6.80;99.90;;;;;;5061567;28;20545;-90
2023/04/28 02:09:33;;;;;;;8.82;4.03;;;6.70;99.90;;;;;;5037784;28;20033;-89
2023/04/28 02:11:59;;;;;;;14.13;4.63;;;6.70;99.90;;;;;;5060924;28;20029;-89
2023/04/28 02:14:24;;;;;;;4.38;3.13;;;6.60;99.90;;;;;;5065160;28;20024;-89
2023/04/28 02:16:50;;;;;;;8.73;4.63;;;6.60;99.90;;;;;;5054812;28;20026;-90
2023/04/28 02:19:15;;;;;;;7.45;4.28;;;6.60;99.90;;;;;;5058784;28;20032;-89
2023/04/28 02:21:42;;;;;;;9.20;4.38;;;6.60;99.90;;;;;;5058110;28;20541;-88
2023/04/28 02:24:13;;;;;;;19.67;4.95;;;6.60;99.90;;;;;;5057173;28;20106;-90
2023/04/28 02:26:39;;;;;;;9.55;4.00;;;6.60;99.90;;;;;;5050791;28;20024;-89
2023/04/28 02:29:05;;;;;;;11.80;4.15;;;6.50;99.90;;;;;;5041772;28;20021;-90
2023/04/28 02:31:30;;;;;;;14.90;4.80;;;6.50;99.90;;;;;;5051924;28;20355;-90
2023/04/28 02:33:56;;;;;;;6.10;4.13;;;6.50;99.90;;;;;;5057672;28;20091;-88
2023/04/28 02:36:22;;;;;;;9.80;4.18;;;6.50;99.90;;;;;;5062000;28;20385;-89
2023/04/28 02:38:50;;;;;;;8.75;4.53;;;6.50;99.90;;;;;;5060189;28;20029;-85
2023/04/28 02:41:17;;;;;;;6.45;4.13;;;6.40;99.90;;;;;;5052469;28;20067;-90
2023/04/28 02:43:43;;;;;;;12.23;4.75;;;6.40;99.90;;;;;;5053105;28;20086;-88
2023/04/28 02:46:08;;;;;;;7.35;3.88;;;6.40;99.90;;;;;;5054106;28;20028;-90
2023/04/28 02:48:35;;;;;;;8.55;4.97;;;6.40;99.90;;;;;;5057581;28;20178;-89
2023/04/28 02:51:01;;;;;;;15.10;5.38;;;6.40;99.90;;;;;;5056903;28;20060;-89
2023/04/28 02:53:26;;;;;;;8.82;4.60;;;6.30;99.90;;;;;;5057701;28;20066;-89
2023/04/28 02:55:52;;;;;;;10.82;4.65;;;6.30;99.90;;;;;;5067144;28;20020;-86
2023/04/28 02:58:18;;;;;;;13.35;4.68;;;6.30;99.90;;;;;;5055367;28;20048;-90
2023/04/28 03:00:44;;;;;;;5.57;4.25;;;6.20;99.90;;;;;;5051635;28;20424;-89
2023/04/28 03:03:10;;;;;;;8.73;4.82;;;6.20;99.90;;;;;;5050974;28;20062;-88
2023/04/28 03:05:35;;;;;;;11.45;4.82;;;6.10;99.90;;;;;;5057791;28;20037;-89
2023/04/28 03:08:02;;;;;;;11.10;4.97;;;6.10;99.90;;;;;;5067963;28;20439;-89
2023/04/28 03:10:27;;;;;;;6.65;4.70;;;6.10;99.90;;;;;;5047171;28;20550;-90
2023/04/28 03:12:53;;;;;;;12.23;5.93;;;6.00;99.90;;;;;;5056416;28;20025;-89
2023/04/28 03:15:19;;;;;;;8.77;4.95;;;5.90;99.90;;;;;;5049284;28;20135;-89
2023/04/28 03:17:45;;;;;;;9.75;4.32;;;5.90;99.90;;;;;;5053630;28;20054;-89
2023/04/28 03:20:13;;;;;;;8.27;5.30;;;5.80;99.90;;;;;;5046287;28;20056;-89
2023/04/28 03:22:39;;;;;;;15.35;5.90;;;5.80;99.90;;;;;;5050449;28;20025;-90
2023/04/28 03:25:05;;;;;;;10.13;4.95;;;5.70;99.90;;;;;;5049407;28;20037;-89
2023/04/28 03:27:31;;;;;;;14.43;5.75;;;5.70;99.90;;;;;;5057087;28;20040;-89
2023/04/28 03:29:57;;;;;;;9.18;5.80;;;5.60;99.90;;;;;;5052561;28;20029;-87
2023/04/28 03:32:23;;;;;;;12.07;6.47;;;5.60;99.90;;;;;;5054629;28;20029;-89
2023/04/28 03:34:48;;;;;;;12.27;6.43;;;5.60;99.90;;;;;;5046091;28;21256;-89
2023/04/28 03:37:14;;;;;;;12.18;6.68;;;5.50;99.90;;;;;;5053383;28;20115;-89
2023/04/28 03:39:39;;;;;;;15.07;6.80;;;5.50;99.90;;;;;;5049593;28;20032;-90
2023/04/28 03:42:05;;;;;;;16.95;7.20;;;5.50;99.90;;;;;;5059919;28;20461;-89
2023/04/28 03:44:30;;;;;;;16.23;7.45;;;5.50;99.90;;;;;;5051571;28;20044;-89
2023/04/28 03:46:56;;;;;;;13.63;7.78;;;5.50;99.90;;;;;;5048060;28;20060;-89
2023/04/28 03:49:23;;;;;;;18.90;7.20;;;5.50;99.90;;;;;;5054432;28;20470;-86
2023/04/28 03:51:50;;;;;;;13.30;8.32;;;5.40;99.90;;;;;;5052573;28;20465;-89
2023/04/28 03:54:16;;;;;;;19.02;8.32;;;5.40;99.90;;;;;;5050679;28;20017;-89
2023/04/28 03:56:42;;;;;;;16.50;9.65;;;5.40;99.90;;;;;;5057674;28;20021;-88
2023/04/28 03:59:10;;;;;;;15.88;7.75;;;5.40;99.90;;;;;;5055311;28;20142;-90
2023/04/28 04:01:37;;;;;;;16.60;8.15;;;5.30;99.90;;;;;;5051107;28;20032;-90
2023/04/28 04:04:03;;;;;;;16.58;8.75;;;5.30;99.90;;;;;;5044979;28;20060;-89
2023/04/28 04:06:30;;;;;;;18.08;8.65;;;5.30;99.90;;;;;;5057689;28;20111;-88
2023/04/28 04:08:55;;;;;;;12.57;7.95;;;5.30;99.90;;;;;;5050986;28;20430;-90
2023/04/28 04:11:22;;;;;;;14.60;8.52;;;5.30;99.90;;;;;;5053067;28;20061;-89
2023/04/28 04:13:48;;;;;;;17.48;9.43;;;5.30;99.90;;;;;;5052947;28;20078;-89
2023/04/28 04:16:16;;;;;;;19.33;8.00;;;5.30;99.90;;;;;;5057497;28;20037;-89
2023/04/28 04:18:42;;;;;;;15.70;8.43;;;5.30;99.90;;;;;;5049905;28;20024;-87
2023/04/28 04:21:07;;;;;;;22.35;8.90;;;5.30;99.90;;;;;;5051462;28;20032;-90
2023/04/28 04:23:33;;;;;;;16.83;8.65;;;5.30;99.90;;;;;;5054563;28;20025;-89
2023/04/28 04:25:58;;;;;;;20.13;8.70;;;5.30;99.90;;;;;;5052809;28;20044;-88
2023/04/28 04:28:24;;;;;;;17.85;9.55;;;5.30;99.90;;;;;;5062826;28;20461;-90
2023/04/28 04:30:49;;;;;;;20.52;9.18;;;5.30;99.90;;;;;;5054438;28;20016;-89
2023/04/28 04:33:15;;;;;;;19.45;8.32;;;5.30;99.90;;;;;;5044874;28;20131;-89
2023/04/28 04:35:40;;;;;;;17.67;9.13;;;5.30;99.90;;;;;;5041550;28;20025;-87
2023/04/28 04:38:06;;;;;;;18.25;9.55;;;5.30;99.90;;;;;;5040573;28;20013;-88
2023/04/28 04:40:32;;;;;;;20.05;9.88;;;5.30;99.90;;;;;;5042322;28;20017;-89
2023/04/28 04:42:57;;;;;;;18.55;9.38;;;5.40;99.90;;;;;;5048836;28;20021;-89
2023/04/28 04:45:23;;;;;;;17.15;8.50;;;5.40;99.90;;;;;;5048029;28;20127;-88
2023/04/28 04:47:49;;;;;;;19.60;10.38;;;5.50;99.90;;;;;;5048575;28;20116;-90
2023/04/28 04:50:15;;;;;;;14.25;9.52;;;5.50;99.90;;;;;;5049130;28;20040;-87
2023/04/28 04:52:40;;;;;;;18.45;9.50;;;5.60;99.90;;;;;;5048491;28;20028;-89
2023/04/28 04:55:06;;;;;;;16.67;9.70;;;5.60;99.90;;;;;;5048518;28;20025;-89
2023/04/28 04:57:32;;;;;;;20.83;10.00;;;5.70;99.90;;;;;;5047680;28;20089;-89
2023/04/28 05:00:00;;;;;;;14.15;9.02;;;5.80;99.90;;;;;;5052092;28;20028;-87
2023/04/28 05:02:29;;;;;;;15.23;7.95;;;5.80;99.90;;;;;;5054638;28;20024;-88
2023/04/28 05:04:57;;;;;;;11.45;7.47;;;5.90;99.90;;;;;;5049818;28;20044;-89
2023/04/28 05:07:25;;;;;;;13.02;7.85;;;6.00;99.90;;;;;;5041041;28;20129;-89
2023/04/28 05:09:51;;;;;;;30.20;10.30;;;6.10;99.90;;;;;;5041038;28;20012;-89
2023/04/28 05:12:17;;;;;;;30.58;10.73;;;6.20;99.90;;;;;;5058343;28;20029;-89
2023/04/28 05:14:42;;;;;;;17.05;8.60;;;6.30;99.90;;;;;;5038855;28;20217;-87
2023/04/28 05:17:08;;;;;;;19.77;8.18;;;6.40;99.90;;;;;;5041666;28;20024;-87
2023/04/28 05:19:33;;;;;;;13.65;7.55;;;6.40;99.90;;;;;;5040718;28;20363;-88
2023/04/28 05:21:59;;;;;;;10.63;6.88;;;6.40;99.90;;;;;;5047577;28;20026;-89
2023/04/28 05:24:27;;;;;;;11.43;6.63;;;6.50;99.90;;;;;;5043744;28;20492;-87
2023/04/28 05:26:53;;;;;;;14.68;7.57;;;6.50;99.90;;;;;;5046244;28;20040;-86
2023/04/28 05:29:20;;;;;;;18.65;7.30;;;6.50;99.90;;;;;;5052237;28;20037;-88
2023/04/28 05:31:49;;;;;;;13.25;7.60;;;6.60;99.90;;;;;;5046047;28;20016;-89
2023/04/28 05:34:15;;;;;;;14.30;7.50;;;6.60;99.90;;;;;;5043756;28;20421;-89
2023/04/28 05:36:40;;;;;;;11.73;7.50;;;6.60;99.90;;;;;;5042452;28;20029;-89
2023/04/28 05:39:07;;;;;;;18.70;7.22;;;6.60;99.90;;;;;;5040101;28;20029;-88
2023/04/28 05:41:35;;;;;;;15.40;7.95;;;6.70;99.90;;;;;;5047816;28;20029;-89
2023/04/28 05:44:01;;;;;;;11.23;6.45;;;6.70;99.90;;;;;;5049394;28;20033;-88
2023/04/28 05:46:27;;;;;;;13.60;7.68;;;6.70;99.90;;;;;;5042415;28;20390;-88
2023/04/28 05:48:52;;;;;;;9.00;6.25;;;6.70;99.90;;;;;;5046448;28;20463;-88
2023/04/28 05:51:21;;;;;;;13.02;6.05;;;6.70;99.90;;;;;;5048855;28;20031;-89
2023/04/28 05:53:47;;;;;;;10.88;6.57;;;6.70;99.90;;;;;;5051031;28;20004;-89
2023/04/28 05:56:15;;;;;;;20.52;10.15;;;6.70;99.90;;;;;;5043692;28;20051;-88
2023/04/28 05:58:43;;;;;;;18.90;8.52;;;6.80;99.90;;;;;;5045871;28;20063;-89
2023/04/28 06:01:10;;;;;;;16.98;8.68;;;6.80;99.90;;;;;;5043009;28;20382;-89
2023/04/28 06:03:36;;;;;;;16.05;8.63;;;6.80;99.90;;;;;;5045774;28;20104;-88
2023/04/28 06:06:02;;;;;;;15.20;9.23;;;6.80;99.90;;;;;;5036537;28;20112;-88
2023/04/28 06:08:27;;;;;;;13.25;8.00;;;6.80;99.90;;;;;;5048056;28;20035;-89
2023/04/28 06:10:53;;;;;;;13.00;8.00;;;6.80;99.90;;;;;;5042937;28;20056;-88
2023/04/28 06:13:18;;;;;;;16.42;8.20;;;6.80;99.90;;;;;;5045307;28;20086;-88
2023/04/28 06:15:44;;;;;;;15.93;7.95;;;6.90;99.90;;;;;;5046373;28;20033;-89
2023/04/28 06:18:10;;;;;;;15.20;7.25;;;6.90;99.90;;;;;;5045218;28;20116;-89
2023/04/28 06:20:35;;;;;;;17.80;9.75;;;6.90;99.90;;;;;;5043601;28;20051;-89
2023/04/28 06:23:02;;;;;;;13.20;7.72;;;7.00;99.90;;;;;;5049953;28;20087;-88
2023/04/28 06:25:28;;;;;;;16.73;7.38;;;7.00;99.90;;;;;;5044483;28;20044;-88
2023/04/28 06:27:53;;;;;;;11.80;6.80;;;7.00;99.90;;;;;;5036351;28;20116;-88
2023/04/28 06:30:22;;;;;;;20.83;8.02;;;7.00;99.90;;;;;;5050813;28;20501;-89
2023/04/28 06:32:47;;;;;;;20.90;8.35;;;7.00;99.90;;;;;;5048884;28;20115;-89
2023/04/28 06:35:14;;;;;;;16.02;8.52;;;7.10;99.90;;;;;;5042299;28;20161;-87
2023/04/28 06:37:40;;;;;;;15.80;7.15;;;7.10;99.90;;;;;;5052125;28;20024;-89
2023/04/28 06:40:07;;;;;;;10.90;7.20;;;7.10;99.90;;;;;;5054220;28;20048;-88
2023/04/28 06:42:32;;;;;;;15.68;9.45;;;7.20;99.90;;;;;;5042425;28;20036;-89
2023/04/28 06:44:58;;;;;;;21.38;10.15;;;7.20;99.90;;;;;;5048809;28;20041;-88
2023/04/28 06:47:24;;;;;;;20.98;10.45;;;7.20;99.90;;;;;;5054099;28;20037;-87
2023/04/28 06:49:50;;;;;;;16.65;9.48;;;7.30;99.90;;;;;;5047056;28;20029;-89
2023/04/28 06:52:16;;;;;;;26.35;11.07;;;7.30;99.90;;;;;;5048892;28;20033;-88
2023/04/28 06:54:41;;;;;;;21.48;10.65;;;7.30;99.90;;;;;;5043484;28;20025;-89
2023/04/28 06:57:10;;;;;;;13.82;9.23;;;7.40;99.90;;;;;;5044439;28;20021;-86
2023/04/28 06:59:36;;;;;;;15.65;9.35;;;7.40;99.90;;;;;;5046248;28;20039;-88
2023/04/28 07:02:01;;;;;;;18.35;12.38;;;7.40;99.90;;;;;;5048802;28;20127;-89
2023/04/28 07:04:27;;;;;;;19.33;10.73;;;7.40;99.90;;;;;;5052902;28;20139;-88
2023/04/28 07:06:54;;;;;;;15.95;10.00;;;7.50;99.90;;;;;;5046684;28;20071;-88
2023/04/28 07:09:19;;;;;;;19.80;11.20;;;7.50;99.90;;;;;;5049214;28;20091;-88
2023/04/28 07:11:45;;;;;;;26.60;13.25;;;7.50;99.90;;;;;;5049389;28;20492;-89
2023/04/28 07:14:11;;;;;;;19.00;12.05;;;7.60;99.90;;;;;;5047370;28;20071;-88
2023/04/28 07:16:37;;;;;;;19.75;11.85;;;7.60;99.90;;;;;;5046003;28;20030;-90
2023/04/28 07:19:02;;;;;;;26.35;13.02;;;7.70;99.90;;;;;;5049124;28;20079;-89
2023/04/28 07:21:28;;;;;;;27.55;12.00;;;7.70;99.90;;;;;;5050853;28;20083;-87
2023/04/28 07:23:56;;;;;;;22.27;12.27;;;7.80;99.90;;;;;;5048040;28;20040;-90
2023/04/28 07:26:22;;;;;;;19.55;12.15;;;7.80;99.90;;;;;;5049249;28;20102;-89
2023/04/28 07:28:48;;;;;;;24.70;12.75;;;7.90;99.90;;;;;;5056086;28;20017;-89
2023/04/28 07:31:14;;;;;;;19.13;11.48;;;7.90;99.90;;;;;;5053136;28;20037;-88
2023/04/28 07:33:40;;;;;;;21.98;12.80;;;7.90;99.90;;;;;;5046525;28;20505;-88
2023/04/28 07:36:06;;;;;;;21.30;12.48;;;8.00;99.90;;;;;;5053636;28;20029;-89
2023/04/28 07:38:35;;;;;;;21.67;13.35;;;8.00;99.90;;;;;;5046049;28;20068;-89
2023/04/28 07:41:02;;;;;;;26.67;15.80;;;8.10;99.90;;;;;;5042522;28;20055;-89
2023/04/28 07:43:28;;;;;;;22.65;14.73;;;8.20;99.90;;;;;;5040663;28;20029;-88
2023/04/28 07:45:53;;;;;;;23.20;14.77;;;8.20;99.90;;;;;;5043640;28;20107;-89
2023/04/28 07:48:19;;;;;;;26.40;15.52;;;8.30;99.90;;;;;;5048871;28;20025;-88
2023/04/28 07:50:45;;;;;;;23.05;13.95;;;8.40;99.90;;;;;;5054220;28;20229;-89
2023/04/28 07:53:11;;;;;;;59.08;21.63;;;8.40;99.90;;;;;;5044693;28;20041;-87
2023/04/28 07:55:37;;;;;;;56.60;26.40;;;8.50;99.90;;;;;;5049954;28;20040;-89
2023/04/28 07:58:03;;;;;;;49.60;20.10;;;8.60;99.90;;;;;;5047410;28;20024;-89
2023/04/28 08:00:29;;;;;;;37.85;16.02;;;8.60;99.90;;;;;;5040430;28;20025;-88
2023/04/28 08:02:56;;;;;;;35.63;16.60;;;8.70;99.90;;;;;;5056270;28;20331;-90
2023/04/28 08:05:21;;;;;;;27.63;15.20;;;8.70;99.90;;;;;;5044418;28;20059;-89
2023/04/28 08:07:47;;;;;;;20.38;12.98;;;8.80;99.90;;;;;;5054207;28;20016;-89
2023/04/28 08:10:13;;;;;;;24.13;13.27;;;8.90;99.90;;;;;;5050850;28;20025;-88
2023/04/28 08:12:39;;;;;;;19.60;13.02;;;8.90;99.90;;;;;;5047629;28;20028;-89
2023/04/28 08:15:06;;;;;;;21.90;12.77;;;9.00;99.90;;;;;;5058638;28;20035;-89
2023/04/28 08:17:31;;;;;;;23.80;13.07;;;9.00;99.90;;;;;;5053686;28;20290;-89
2023/04/28 08:19:57;;;;;;;29.88;14.07;;;9.10;99.90;;;;;;5040717;28;20712;-86
2023/04/28 08:22:23;;;;;;;25.08;13.73;;;9.10;99.90;;;;;;5048065;28;20098;-87
2023/04/28 08:24:48;;;;;;;23.70;12.38;;;9.20;99.90;;;;;;5054912;28;20082;-90
2023/04/28 08:27:14;;;;;;;32.88;14.90;;;9.20;99.90;;;;;;5048998;28;20470;-89
2023/04/28 08:29:40;;;;;;;23.85;13.90;;;9.30;99.90;;;;;;5043306;28;20063;-88
2023/04/28 08:32:05;;;;;;;22.95;13.23;;;9.30;99.90;;;;;;5053730;28;20380;-88
2023/04/28 08:34:32;;;;;;;24.70;14.38;;;9.40;99.90;;;;;;5055173;28;20048;-89
2023/04/28 08:37:01;;;;;;;22.00;12.90;;;9.40;99.90;;;;;;5047004;28;20031;-86
2023/04/28 08:39:30;;;;;;;25.50;12.80;;;9.40;99.90;;;;;;5040780;28;20037;-87
2023/04/28 08:41:56;;;;;;;24.58;14.52;;;9.50;99.90;;;;;;5050271;28;20021;-90
2023/04/28 08:44:22;;;;;;;36.60;15.27;;;9.50;99.90;;;;;;5046059;28;20040;-89
2023/04/28 08:46:49;;;;;;;21.10;13.60;;;9.60;99.90;;;;;;5049293;28;20040;-87
2023/04/28 08:49:16;;;;;;;28.75;14.23;;;9.70;99.90;;;;;;5047430;28;20032;-89
2023/04/28 08:51:57;;;;;;;19.67;12.35;;;9.80;99.90;;;;;;5045477;28;20386;-89
2023/04/28 08:54:29;;;;;;;36.67;14.25;;;9.80;99.90;;;;;;5043938;28;20035;-89
2023/04/28 08:56:56;;;;;;;32.03;15.15;;;9.90;99.90;;;;;;5042846;28;20025;-90
2023/04/28 08:59:22;;;;;;;22.92;12.65;;;9.90;99.90;;;;;;5044804;28;20557;-88
2023/04/28 09:01:49;;;;;;;30.17;15.25;;;9.90;99.90;;;;;;5039842;28;20037;-89
2023/04/28 09:04:18;;;;;;;35.38;14.20;;;9.90;99.90;;;;;;5044071;28;20103;-89
2023/04/28 09:06:45;;;;;;;30.88;14.95;;;10.10;99.90;;;;;;5042063;28;20025;-89
2023/04/28 09:09:29;;;;;;;35.40;15.18;;;10.10;99.90;;;;;;5052251;28;20028;-89
2023/04/28 09:12:00;;;;;;;33.72;16.60;;;10.20;99.90;;;;;;5042036;28;20038;-90
2023/04/28 09:14:33;;;;;;;29.92;15.07;;;10.20;99.90;;;;;;5051619;28;20123;-88
2023/04/28 09:16:59;;;;;;;24.75;13.48;;;10.20;99.90;;;;;;5045777;28;20021;-89
2023/04/28 09:19:33;;;;;;;28.40;14.98;;;10.20;99.90;;;;;;5039706;28;20029;-90
2023/04/28 09:21:59;;;;;;;22.15;11.77;;;10.20;99.90;;;;;;5056501;28;20035;-89
2023/04/28 09:24:30;;;;;;;24.63;13.02;;;10.20;99.90;;;;;;5051609;28;20043;-90
2023/04/28 09:27:01;;;;;;;27.67;13.77;;;10.20;99.90;;;;;;5044638;28;20505;-89
2023/04/28 09:29:30;;;;;;;21.80;13.35;;;10.20;99.90;;;;;;5052255;28;20045;-89
2023/04/28 09:32:15;;;;;;;34.60;13.95;;;10.20;99.90;;;;;;5047576;28;20029;-89
2023/04/28 09:34:44;;;;;;;26.25;14.70;;;10.30;99.90;;;;;;5043589;28;20496;-89
2023/04/28 09:37:18;;;;;;;24.80;12.77;;;10.30;99.90;;;;;;5051738;28;20041;-90
2023/04/28 09:39:52;;;;;;;28.85;12.82;;;10.40;99.90;;;;;;5046194;28;20021;-90
2023/04/28 09:42:37;;;;;;;24.75;12.50;;;10.40;99.90;;;;;;5055717;28;20115;-89
2023/04/28 09:45:13;;;;;;;21.42;11.77;;;10.40;99.90;;;;;;5039385;28;20032;-90
2023/04/28 09:47:45;;;;;;;20.55;10.32;;;10.40;99.90;;;;;;5041467;28;20033;-89
2023/04/28 09:50:13;;;;;;;24.65;13.30;;;10.50;99.90;;;;;;5037503;28;20036;-89
2023/04/28 09:52:44;;;;;;;19.33;12.13;;;10.50;99.90;;;;;;5044516;28;20075;-90
2023/04/28 09:55:11;;;;;;;25.67;13.48;;;10.50;99.90;;;;;;5046047;28;20436;-90
2023/04/28 09:57:38;;;;;;;27.48;12.30;;;10.50;99.90;;;;;;5045701;28;20033;-89
2023/04/28 10:00:06;;;;;;;25.25;13.93;;;10.60;99.90;;;;;;5048158;28;20029;-90
2023/04/28 10:02:35;;;;;;;28.23;13.73;;;10.60;99.90;;;;;;5054170;28;20024;-91
2023/04/28 10:05:02;;;;;;;26.70;14.30;;;10.70;99.90;;;;;;5056339;28;20052;-91
2023/04/28 10:07:29;;;;;;;26.85;14.85;;;10.80;99.90;;;;;;5048377;28;20039;-92
2023/04/28 10:09:58;;;;;;;28.10;15.02;;;10.90;99.90;;;;;;5049382;28;20481;-92
2023/04/28 10:12:24;;;;;;;33.95;16.83;;;11.00;99.90;;;;;;5053770;28;21254;-91
2023/04/28 10:14:53;;;;;;;36.00;16.05;;;11.10;99.90;;;;;;5048109;28;20326;-91
2023/04/28 10:17:27;;;;;;;33.55;14.57;;;11.20;99.90;;;;;;5047973;28;20091;-91
2023/04/28 10:19:53;;;;;;;24.85;14.82;;;11.20;99.90;;;;;;5050105;28;20082;-90
2023/04/28 10:22:58;;;;;;;23.48;13.15;;;11.20;99.90;;;;;;5049059;28;20108;-90
2023/04/28 10:25:34;;;;;;;32.20;16.90;;;11.10;99.90;;;;;;5049438;28;20036;-91
2023/04/28 10:28:08;;;;;;;24.92;14.13;;;11.10;99.90;;;;;;5048033;28;20034;-93
2023/04/28 10:30:34;;;;;;;23.13;12.77;;;11.10;99.90;;;;;;5060727;28;20049;-90
2023/04/28 10:33:12;;;;;;;34.10;15.23;;;11.00;99.90;;;;;;5049375;28;20110;-91
2023/04/28 10:35:39;;;;;;;28.73;15.48;;;11.00;99.90;;;;;;5045977;28;20359;-90
2023/04/28 10:38:08;;;;;;;27.55;15.50;;;11.00;99.90;;;;;;5052108;28;20025;-89
2023/04/28 10:40:38;;;;;;;41.88;16.98;;;11.00;99.90;;;;;;5055517;28;20037;-90
2023/04/28 10:43:04;;;;;;;37.00;16.20;;;11.00;99.90;;;;;;5051302;28;20028;-89
2023/04/28 10:45:51;;;;;;;38.83;16.90;;;11.10;99.90;;;;;;5051480;28;20044;-90
2023/04/28 10:48:17;;;;;;;29.92;15.75;;;11.10;99.90;;;;;;5056826;28;20028;-90
2023/04/28 10:51:02;;;;;;;28.42;14.60;;;11.20;99.90;;;;;;5049880;28;20038;-90
2023/04/28 10:54:06;;;;;;;23.92;13.35;;;11.20;99.90;;;;;;5044430;28;20029;-92
2023/04/28 10:56:32;;;;;;;25.77;12.00;;;11.10;99.90;;;;;;5042870;28;20124;-90
2023/04/28 10:58:58;;;;;;;21.67;12.05;;;11.00;99.90;;;;;;5056497;28;20112;-90
2023/04/28 11:01:30;;;;;;;25.30;13.52;;;11.10;99.90;;;;;;5066710;28;20035;-90
2023/04/28 11:04:16;;;;;;;22.42;14.05;;;11.10;99.90;;;;;;5052651;28;20052;-90
2023/04/28 11:06:44;;;;;;;20.83;12.80;;;11.20;99.90;;;;;;5043374;28;20049;-91
2023/04/28 11:09:24;;;;;;;24.05;14.15;;;11.20;99.90;;;;;;5057475;28;20036;-89
2023/04/28 11:11:59;;;;;;;19.83;13.15;;;11.20;99.90;;;;;;5045833;28;20091;-89
2023/04/28 11:14:24;;;;;;;24.77;13.23;;;11.30;99.90;;;;;;5051817;28;20074;-90
2023/04/28 11:16:58;;;;;;;16.30;9.05;;;11.30;99.90;;;;;;5055718;28;20032;-89
2023/04/28 11:19:27;;;;;;;25.90;11.00;;;11.40;99.90;;;;;;5056331;28;20029;-90
2023/04/28 11:21:57;;;;;;;17.70;10.98;;;11.40;99.90;;;;;;5050740;28;20919;-90
2023/04/28 11:24:30;;;;;;;23.83;12.40;;;11.50;99.90;;;;;;5047837;28;20048;-89
2023/04/28 11:26:59;;;;;;;19.08;11.23;;;11.60;99.90;;;;;;5046097;28;20028;-90
2023/04/28 11:29:34;;;;;;;19.98;10.07;;;11.70;99.90;;;;;;5055981;28;20025;-89
2023/04/28 11:32:01;;;;;;;20.45;9.23;;;11.80;99.90;;;;;;5048036;28;20043;-89
2023/04/28 11:34:27;;;;;;;15.27;9.30;;;11.90;99.90;;;;;;5051884;28;20218;-91
2023/04/28 11:36:52;;;;;;;14.15;8.13;;;12.10;99.90;;;;;;5050779;28;20022;-89
2023/04/28 11:39:27;;;;;;;15.88;8.55;;;12.30;99.90;;;;;;5045981;28;20119;-89
2023/04/28 11:41:53;;;;;;;17.75;8.52;;;12.30;99.90;;;;;;5044117;28;20028;-89
2023/04/28 11:44:22;;;;;;;15.55;8.60;;;12.40;99.90;;;;;;5050298;28;20056;-90
2023/04/28 11:46:53;;;;;;;15.85;7.53;;;12.50;99.90;;;;;;5051914;28;20143;-88
2023/04/28 11:49:20;;;;;;;9.75;6.28;;;12.50;99.90;;;;;;5051916;28;20031;-89
2023/04/28 11:51:48;;;;;;;12.60;7.05;;;12.50;99.90;;;;;;5050183;28;20027;-90
2023/04/28 11:54:18;;;;;;;12.60;7.03;;;12.50;99.90;;;;;;5050673;28;20086;-90
2023/04/28 11:56:44;;;;;;;12.23;7.45;;;12.60;99.90;;;;;;5040053;28;20432;-89
2023/04/28 11:59:11;;;;;;;15.80;8.32;;;12.60;99.90;;;;;;5048300;28;20033;-89
2023/04/28 12:01:51;;;;;;;16.95;8.32;;;12.60;99.90;;;;;;5046079;28;20392;-90
2023/04/28 12:04:31;;;;;;;14.98;8.15;;;12.50;99.90;;;;;;5045745;28;20045;-90
2023/04/28 12:07:03;;;;;;;15.60;8.50;;;12.40;99.90;;;;;;5050647;28;20032;-90
2023/04/28 12:09:29;;;;;;;18.80;9.25;;;12.30;99.90;;;;;;5038905;28;20021;-90
2023/04/28 12:12:01;;;;;;;16.45;8.75;;;12.20;99.90;;;;;;5052988;28;20131;-88
2023/04/28 12:14:29;;;;;;;19.45;10.90;;;12.10;99.90;;;;;;5046343;28;20025;-91
2023/04/28 12:16:55;;;;;;;19.52;10.77;;;12.10;99.90;;;;;;5057040;28;20229;-90
2023/04/28 12:19:21;;;;;;;21.65;11.82;;;12.00;99.90;;;;;;5051168;28;20021;-88
2023/04/28 12:22:06;;;;;;;17.98;11.32;;;12.00;99.90;;;;;;5046068;28;20040;-88
2023/04/28 12:24:34;;;;;;;20.20;10.75;;;11.90;99.90;;;;;;5050550;28;20067;-88
2023/04/28 12:27:23;;;;;;;28.42;13.32;;;11.90;99.90;;;;;;5043328;28;20028;-87
2023/04/28 12:29:49;;;;;;;22.08;14.20;;;11.90;99.90;;;;;;5040645;28;20113;-86
2023/04/28 12:32:16;;;;;;;16.50;12.32;;;11.90;99.90;;;;;;5046868;28;20032;-86
2023/04/28 12:34:44;;;;;;;25.88;15.05;;;11.90;99.90;;;;;;5060464;28;20024;-86
2023/04/28 12:37:11;;;;;;;26.23;15.48;;;11.90;99.90;;;;;;5048496;28;20032;-86
2023/04/28 12:39:39;;;;;;;27.67;14.85;;;12.00;99.90;;;;;;5043317;28;20359;-86
2023/04/28 12:42:05;;;;;;;21.90;14.60;;;12.00;99.90;;;;;;5038822;28;20111;-85
2023/04/28 12:44:37;;;;;;;26.80;14.63;;;12.00;99.90;;;;;;5041443;28;20095;-87
2023/04/28 12:47:08;;;;;;;25.73;15.85;;;12.00;99.90;;;;;;5041957;28;20565;-87